Time;durP1;ratioP1;P1;durP2;ratioP2;P2;SDS_P1;SDS_P2;PMS_P1;PMS_P2;Temp;Humidity;BMP_temperature;BMP_pressure;BME280_temperature;BME280_humidity;BME280_pressure;Samples;Min_cycle;Max_cycle;Signal;HPM_P1;HPM_P2
2024/04/06 00:00:38;;;;;;;6.00;3.00;;;15.60;76.40;;;;;;6302321;28;20428;-65
2024/04/06 00:03:39;;;;;;;2.90;2.70;;;15.60;76.40;;;;;;6301998;28;20192;-64
2024/04/06 00:06:39;;;;;;;5.17;3.30;;;15.60;76.50;;;;;;6302388;28;20275;-66
2024/04/06 00:09:40;;;;;;;4.37;3.17;;;15.60;76.50;;;;;;6301711;28;20653;-65
2024/04/06 00:12:41;;;;;;;4.50;3.23;;;15.60;76.60;;;;;;6301876;28;20275;-65
2024/04/06 00:15:42;;;;;;;6.47;3.50;;;15.60;76.40;;;;;;6301619;28;20510;-65
2024/04/06 00:18:43;;;;;;;6.53;3.40;;;15.60;76.30;;;;;;6301950;28;20188;-64
2024/04/06 00:21:44;;;;;;;6.93;3.37;;;15.50;76.20;;;;;;6301689;28;20517;-65
2024/04/06 00:24:45;;;;;;;3.93;2.97;;;15.50;76.10;;;;;;6301769;28;20288;-65
2024/04/06 00:27:46;;;;;;;6.03;3.20;;;15.60;76.00;;;;;;6300568;28;20440;-64
2024/04/06 00:30:46;;;;;;;3.43;3.13;;;15.60;75.90;;;;;;6301889;28;20229;-64
2024/04/06 00:33:47;;;;;;;5.10;3.60;;;15.60;75.90;;;;;;6300968;28;20652;-65
2024/04/06 00:36:48;;;;;;;5.37;2.90;;;15.60;75.80;;;;;;6301211;28;20186;-65
2024/04/06 00:39:49;;;;;;;4.90;3.50;;;15.60;75.70;;;;;;6301468;28;20193;-65
2024/04/06 00:42:50;;;;;;;5.10;2.97;;;15.60;75.40;;;;;;6305515;28;20512;-65
2024/04/06 00:45:50;;;;;;;8.07;3.90;;;15.60;75.30;;;;;;6312117;28;20243;-65
2024/04/06 00:48:58;;;;;;;6.97;3.70;;;15.60;75.00;;;;;;6310422;28;20838;-65
2024/04/06 00:51:58;;;;;;;7.60;3.30;;;15.70;74.90;;;;;;6310235;28;20424;-65
2024/04/06 00:54:59;;;;;;;6.10;3.10;;;15.70;74.80;;;;;;6308404;28;20275;-66
2024/04/06 00:58:00;;;;;;;7.90;3.10;;;15.70;74.80;;;;;;6290162;28;20194;-66
2024/04/06 01:01:01;;;;;;;3.33;3.00;;;15.70;74.80;;;;;;6297420;28;20189;-67
2024/04/06 01:04:04;;;;;;;7.30;3.43;;;15.70;74.90;;;;;;6296922;28;20284;-66
2024/04/06 01:07:05;;;;;;;3.97;3.07;;;15.70;74.90;;;;;;6296495;28;20311;-66
2024/04/06 01:10:06;;;;;;;5.33;3.40;;;15.70;75.00;;;;;;6297301;28;20441;-66
2024/04/06 01:13:07;;;;;;;6.13;2.90;;;15.70;75.10;;;;;;6296665;28;20684;-65
2024/04/06 01:16:08;;;;;;;6.87;3.30;;;15.70;75.20;;;;;;6297086;28;20429;-65
2024/04/06 01:19:09;;;;;;;10.40;3.30;;;15.70;75.30;;;;;;6297221;28;20174;-65
2024/04/06 01:22:09;;;;;;;2.83;2.53;;;15.70;75.60;;;;;;6295962;28;20595;-65
2024/04/06 01:25:10;;;;;;;4.43;2.80;;;15.60;75.60;;;;;;6296478;28;20239;-65
2024/04/06 01:28:11;;;;;;;6.00;3.10;;;15.60;75.60;;;;;;6296188;28;20223;-65
2024/04/06 01:31:12;;;;;;;5.10;2.93;;;15.60;75.50;;;;;;6296228;28;20292;-66
2024/04/06 01:34:13;;;;;;;4.77;2.47;;;15.60;75.40;;;;;;6297084;28;20504;-66
2024/04/06 01:37:16;;;;;;;4.30;2.70;;;15.60;75.30;;;;;;6297446;28;20543;-66
2024/04/06 01:40:17;;;;;;;3.90;3.10;;;15.60;75.40;;;;;;6299771;28;20284;-66
2024/04/06 01:43:17;;;;;;;4.50;2.93;;;15.50;75.40;;;;;;6302393;28;20756;-66
2024/04/06 01:46:19;;;;;;;7.00;2.73;;;15.50;75.50;;;;;;6305715;28;20296;-66
2024/04/06 01:49:20;;;;;;;7.60;3.10;;;15.50;75.50;;;;;;6324910;28;20638;-66
2024/04/06 01:52:21;;;;;;;5.40;2.77;;;15.50;75.30;;;;;;6308748;28;20424;-66
2024/04/06 01:55:21;;;;;;;3.00;2.47;;;15.40;75.30;;;;;;6308390;28;20687;-66
2024/04/06 01:58:22;;;;;;;3.53;3.07;;;15.40;75.30;;;;;;6318537;28;20285;-66
2024/04/06 02:01:23;;;;;;;3.43;2.70;;;15.30;75.40;;;;;;6281566;28;20195;-66
2024/04/06 02:04:24;;;;;;;3.83;2.80;;;15.30;75.30;;;;;;6280761;28;20207;-66
2024/04/06 02:07:24;;;;;;;2.90;2.60;;;15.20;75.50;;;;;;6280430;28;20217;-65
2024/04/06 02:10:25;;;;;;;5.00;2.90;;;15.20;75.70;;;;;;6279035;28;20194;-65
2024/04/06 02:13:26;;;;;;;3.70;2.87;;;15.10;76.00;;;;;;6278647;28;20186;-65
2024/04/06 02:16:26;;;;;;;11.63;3.20;;;15.00;76.00;;;;;;6279002;28;20221;-65
2024/04/06 02:19:27;;;;;;;5.27;3.20;;;15.00;76.00;;;;;;6278815;28;20285;-66
2024/04/06 02:22:28;;;;;;;4.83;2.50;;;14.90;76.10;;;;;;6278872;28;20229;-64
2024/04/06 02:25:29;;;;;;;2.33;2.10;;;14.80;76.00;;;;;;6278947;28;20269;-64
2024/04/06 02:28:29;;;;;;;3.80;2.30;;;14.80;76.00;;;;;;6278404;28;20214;-64
2024/04/06 02:31:30;;;;;;;4.00;2.87;;;14.80;76.00;;;;;;6278702;28;20277;-65
2024/04/06 02:34:31;;;;;;;6.07;2.33;;;14.80;76.00;;;;;;6278252;28;20285;-65
2024/04/06 02:37:32;;;;;;;3.40;2.70;;;14.70;76.00;;;;;;6278703;28;20528;-65
2024/04/06 02:40:32;;;;;;;2.67;2.30;;;14.70;76.00;;;;;;6278202;28;20252;-65
2024/04/06 02:43:33;;;;;;;2.83;2.60;;;14.70;76.00;;;;;;6278421;28;20590;-65
2024/04/06 02:46:34;;;;;;;5.50;2.60;;;14.70;76.10;;;;;;6277491;28;20237;-65
2024/04/06 02:49:35;;;;;;;3.93;2.33;;;14.60;75.90;;;;;;6277829;28;20693;-65
2024/04/06 02:52:35;;;;;;;2.93;2.17;;;14.60;75.90;;;;;;6261904;28;20230;-65
2024/04/06 02:55:36;;;;;;;3.43;2.23;;;14.50;75.70;;;;;;6277691;28;20201;-65
2024/04/06 02:58:37;;;;;;;4.03;2.13;;;14.60;75.60;;;;;;6277324;28;20181;-66
2024/04/06 03:01:38;;;;;;;2.43;2.07;;;14.50;75.60;;;;;;6277508;28;20296;-66
2024/04/06 03:04:40;;;;;;;4.67;2.30;;;14.50;75.70;;;;;;6277217;28;20705;-67
2024/04/06 03:07:41;;;;;;;3.37;2.50;;;14.50;75.80;;;;;;6277255;28;20563;-65
2024/04/06 03:10:42;;;;;;;2.67;2.20;;;14.50;75.70;;;;;;6275988;28;20460;-65
2024/04/06 03:13:43;;;;;;;5.20;2.43;;;14.50;75.60;;;;;;6277100;28;20191;-65
2024/04/06 03:16:44;;;;;;;4.33;2.33;;;14.50;75.40;;;;;;6282622;28;20276;-65
2024/04/06 03:19:44;;;;;;;3.90;2.40;;;14.50;75.40;;;;;;6279541;28;20467;-66
2024/04/06 03:23:00;;;;;;;2.50;2.30;;;14.40;75.40;;;;;;6276737;28;20522;-66
2024/04/06 03:26:01;;;;;;;3.27;2.20;;;14.40;75.30;;;;;;6276750;28;20285;-66
2024/04/06 03:29:01;;;;;;;5.10;2.73;;;14.40;75.30;;;;;;6276557;28;20467;-67
2024/04/06 03:32:02;;;;;;;5.10;2.90;;;14.30;75.40;;;;;;6276438;28;20610;-65
2024/04/06 03:35:03;;;;;;;4.70;2.60;;;14.20;75.80;;;;;;6276639;28;20588;-65
2024/04/06 03:38:04;;;;;;;2.87;2.63;;;14.20;76.20;;;;;;6276522;28;20524;-66
2024/04/06 03:41:05;;;;;;;3.50;2.97;;;14.10;76.50;;;;;;6276205;28;21022;-66
2024/04/06 03:44:06;;;;;;;2.73;2.53;;;14.00;77.20;;;;;;6275732;28;20194;-66
2024/04/06 03:47:07;;;;;;;3.77;2.67;;;13.90;77.50;;;;;;6292782;28;20564;-66
2024/04/06 03:50:07;;;;;;;5.30;2.67;;;13.80;78.00;;;;;;6275873;28;20281;-65
2024/04/06 03:53:10;;;;;;;2.60;2.40;;;13.70;78.00;;;;;;6276405;28;20217;-66
2024/04/06 03:56:10;;;;;;;6.33;3.43;;;13.70;77.90;;;;;;6276143;28;20531;-66
2024/04/06 03:59:12;;;;;;;4.40;2.70;;;13.70;77.90;;;;;;6276472;28;20465;-64
2024/04/06 04:02:12;;;;;;;2.70;2.50;;;13.70;77.70;;;;;;6276072;28;20658;-65
2024/04/06 04:05:13;;;;;;;3.13;2.40;;;13.60;77.80;;;;;;6276626;28;20464;-66
2024/04/06 04:08:14;;;;;;;3.90;3.17;;;13.60;77.70;;;;;;6276192;28;20515;-66
2024/04/06 04:11:15;;;;;;;5.03;2.30;;;13.60;77.40;;;;;;6276066;28;20281;-65
2024/04/06 04:14:16;;;;;;;3.93;2.27;;;13.60;77.10;;;;;;6276387;28;20455;-65
2024/04/06 04:17:18;;;;;;;2.70;2.27;;;13.60;76.90;;;;;;6275853;28;20190;-67
2024/04/06 04:20:18;;;;;;;2.73;2.40;;;13.70;76.60;;;;;;6275673;28;20277;-66
2024/04/06 04:23:19;;;;;;;3.33;2.23;;;13.60;76.60;;;;;;6275380;28;20433;-66
2024/04/06 04:26:21;;;;;;;3.83;2.17;;;13.60;76.30;;;;;;6275451;28;20625;-66
2024/04/06 04:29:22;;;;;;;3.37;2.10;;;13.50;76.40;;;;;;6275380;28;20277;-67
2024/04/06 04:32:23;;;;;;;2.70;2.50;;;13.50;76.50;;;;;;6275744;28;20453;-66
2024/04/06 04:35:24;;;;;;;2.93;2.40;;;13.40;76.60;;;;;;6276025;28;20183;-65
2024/04/06 04:38:24;;;;;;;2.83;2.50;;;13.40;76.80;;;;;;6275502;28;20486;-66
2024/04/06 04:41:25;;;;;;;4.70;2.77;;;13.30;76.70;;;;;;6275686;28;20480;-65
2024/04/06 04:44:26;;;;;;;4.17;2.50;;;13.20;77.10;;;;;;6275244;28;20193;-66
2024/04/06 04:47:27;;;;;;;5.57;2.70;;;13.10;77.20;;;;;;6258563;28;20519;-66
2024/04/06 04:50:28;;;;;;;2.93;2.60;;;13.10;77.60;;;;;;6275169;28;20521;-66
2024/04/06 04:53:29;;;;;;;3.70;2.73;;;13.00;77.70;;;;;;6292040;28;20471;-66
2024/04/06 04:56:30;;;;;;;4.60;2.50;;;12.90;77.90;;;;;;6290967;28;20293;-65
2024/04/06 04:59:31;;;;;;;5.70;2.77;;;12.80;78.50;;;;;;6275491;28;20222;-66
2024/04/06 05:02:31;;;;;;;3.77;3.17;;;12.70;79.80;;;;;;6279023;28;20640;-65
2024/04/06 05:05:33;;;;;;;4.30;2.60;;;12.70;79.70;;;;;;6274964;28;20479;-66
2024/04/06 05:08:34;;;;;;;2.67;2.47;;;12.70;79.60;;;;;;6275609;28;20560;-66
2024/04/06 05:11:34;;;;;;;4.93;3.00;;;12.70;79.70;;;;;;6274895;28;20425;-66
2024/04/06 05:14:36;;;;;;;3.47;2.47;;;12.70;79.70;;;;;;6274998;28;20660;-66
2024/04/06 05:17:37;;;;;;;5.90;2.90;;;12.70;79.60;;;;;;6274147;28;20288;-66
2024/04/06 05:20:38;;;;;;;5.10;2.93;;;12.70;79.60;;;;;;6274246;28;20534;-65
2024/04/06 05:23:39;;;;;;;3.10;2.80;;;12.80;79.80;;;;;;6274389;28;20895;-66
2024/04/06 05:26:43;;;;;;;5.27;3.47;;;12.80;80.00;;;;;;6274319;28;20563;-66
2024/04/06 05:29:44;;;;;;;6.10;3.30;;;12.70;80.90;;;;;;6274390;28;20281;-66
2024/04/06 05:32:44;;;;;;;6.40;3.47;;;12.80;80.60;;;;;;6274012;28;20456;-65
2024/04/06 05:35:47;;;;;;;5.33;3.10;;;12.80;80.30;;;;;;6278507;28;20622;-66
2024/04/06 05:38:49;;;;;;;3.73;2.77;;;12.90;80.10;;;;;;6278477;28;20186;-66
2024/04/06 05:41:50;;;;;;;3.47;2.50;;;12.90;79.60;;;;;;6279019;28;20438;-62
2024/04/06 05:44:50;;;;;;;3.43;2.50;;;13.00;79.60;;;;;;6279034;28;20765;-65
2024/04/06 05:47:51;;;;;;;6.50;2.80;;;13.10;79.00;;;;;;6282092;28;20283;-64
2024/04/06 05:50:52;;;;;;;3.03;2.53;;;13.20;78.10;;;;;;6282746;28;20185;-64
2024/04/06 05:53:53;;;;;;;2.47;2.27;;;13.40;77.40;;;;;;6279266;28;20190;-65
2024/04/06 05:56:53;;;;;;;4.67;2.67;;;13.60;76.50;;;;;;6278938;28;20196;-65
2024/04/06 05:59:54;;;;;;;3.30;2.63;;;13.70;75.80;;;;;;6278041;28;20247;-65
2024/04/06 06:02:55;;;;;;;4.70;2.20;;;13.90;74.90;;;;;;6278754;28;20288;-65
2024/04/06 06:05:57;;;;;;;3.80;2.43;;;14.00;74.70;;;;;;6278927;28;20293;-65
2024/04/06 06:08:58;;;;;;;4.40;2.70;;;14.10;74.20;;;;;;6298373;28;20496;-64
2024/04/06 06:11:59;;;;;;;2.77;2.37;;;14.30;73.70;;;;;;6261887;28;20440;-65
2024/04/06 06:15:01;;;;;;;6.40;2.40;;;14.50;73.40;;;;;;6279335;28;20625;-65
2024/04/06 06:18:01;;;;;;;5.40;2.60;;;14.70;72.70;;;;;;6279433;28;20225;-65
2024/04/06 06:21:06;;;;;;;6.30;2.70;;;14.90;72.30;;;;;;6280282;28;20468;-65
2024/04/06 06:24:06;;;;;;;4.50;2.40;;;15.10;72.00;;;;;;6288307;28;20262;-64
2024/04/06 06:27:08;;;;;;;3.97;2.60;;;15.30;70.30;;;;;;6288130;28;20464;-64
2024/04/06 06:30:10;;;;;;;7.07;3.23;;;15.50;70.70;;;;;;6300174;28;20290;-63
2024/04/06 06:33:10;;;;;;;6.03;2.40;;;15.70;70.50;;;;;;6278786;28;20512;-64
2024/04/06 06:36:14;;;;;;;4.83;2.70;;;15.90;69.50;;;;;;6295089;28;20520;-65
2024/04/06 06:39:14;;;;;;;5.80;2.70;;;16.10;70.20;;;;;;6244766;28;20229;-64
2024/04/06 06:42:15;;;;;;;3.30;2.30;;;16.30;70.10;;;;;;6278805;28;20473;-64
2024/04/06 06:45:16;;;;;;;5.47;2.40;;;16.50;69.40;;;;;;6277791;28;20216;-65
2024/04/06 06:48:17;;;;;;;3.53;2.50;;;16.70;67.90;;;;;;6277423;28;20623;-64
2024/04/06 06:51:18;;;;;;;3.60;2.23;;;17.00;67.10;;;;;;6277355;28;20193;-65
2024/04/06 06:54:18;;;;;;;5.13;2.10;;;17.20;66.60;;;;;;6277436;28;20181;-65
2024/04/06 06:57:19;;;;;;;2.50;2.30;;;17.40;65.20;;;;;;6277747;28;20228;-64
2024/04/06 07:00:20;;;;;;;4.17;2.33;;;17.60;65.00;;;;;;6277176;28;20204;-65
2024/04/06 07:03:21;;;;;;;10.77;2.43;;;17.70;65.00;;;;;;6277017;28;20780;-64
2024/04/06 07:06:22;;;;;;;3.03;2.10;;;17.70;64.60;;;;;;6276991;28;20197;-64
2024/04/06 07:09:23;;;;;;;3.43;1.90;;;17.70;64.30;;;;;;6277219;28;20183;-64
2024/04/06 07:12:23;;;;;;;8.83;2.80;;;17.70;63.90;;;;;;6277118;28;20621;-65
2024/04/06 07:15:24;;;;;;;4.63;2.60;;;17.70;63.90;;;;;;6277340;28;20280;-65
2024/04/06 07:18:25;;;;;;;3.60;2.20;;;17.70;63.80;;;;;;6286123;28;20289;-66
2024/04/06 07:21:25;;;;;;;2.60;2.40;;;17.80;63.50;;;;;;6277185;28;20637;-64
2024/04/06 07:24:26;;;;;;;3.83;2.50;;;17.90;64.10;;;;;;6277783;28;20200;-66
2024/04/06 07:27:27;;;;;;;4.40;2.13;;;18.00;63.70;;;;;;6277848;28;20301;-65
2024/04/06 07:30:28;;;;;;;6.20;2.40;;;18.20;63.30;;;;;;6277618;28;20194;-65
2024/04/06 07:33:29;;;;;;;3.83;2.20;;;18.20;62.90;;;;;;6277926;28;20225;-65
2024/04/06 07:36:29;;;;;;;2.47;2.10;;;18.30;62.60;;;;;;6277988;28;20197;-67
2024/04/06 07:39:30;;;;;;;4.57;2.50;;;18.40;62.10;;;;;;6276906;28;20543;-65
2024/04/06 07:42:34;;;;;;;3.07;2.70;;;18.40;62.50;;;;;;6276464;28;20185;-66
2024/04/06 07:45:35;;;;;;;5.20;2.60;;;18.30;62.00;;;;;;6276846;28;20316;-66
2024/04/06 07:48:36;;;;;;;4.40;2.40;;;18.20;62.20;;;;;;6276676;28;20487;-65
2024/04/06 07:51:37;;;;;;;3.23;2.40;;;18.10;63.20;;;;;;6259598;28;20280;-65
2024/04/06 07:54:39;;;;;;;4.90;2.63;;;18.10;63.80;;;;;;6292549;28;20277;-65
2024/04/06 07:57:41;;;;;;;5.37;3.10;;;18.10;64.10;;;;;;6275656;28;20516;-66
2024/04/06 08:00:42;;;;;;;4.07;2.80;;;18.10;64.60;;;;;;6275113;28;20519;-66
2024/04/06 08:03:44;;;;;;;3.97;2.90;;;18.20;64.70;;;;;;6275610;28;20905;-67
2024/04/06 08:06:45;;;;;;;4.87;2.60;;;18.20;65.10;;;;;;6276303;28;20301;-66
2024/04/06 08:09:45;;;;;;;3.50;2.27;;;18.30;65.30;;;;;;6286086;28;20540;-65
2024/04/06 08:12:47;;;;;;;3.33;2.20;;;18.50;64.50;;;;;;6276669;28;20185;-66
2024/04/06 08:15:48;;;;;;;3.83;1.97;;;18.70;62.70;;;;;;6276061;28;20268;-65
2024/04/06 08:18:49;;;;;;;2.47;2.20;;;18.90;61.60;;;;;;6275284;28;20237;-65
2024/04/06 08:21:50;;;;;;;4.17;2.20;;;19.20;60.00;;;;;;6275088;28;20281;-65
2024/04/06 08:24:50;;;;;;;3.50;2.23;;;19.40;59.10;;;;;;6275159;28;20251;-65
2024/04/06 08:27:51;;;;;;;3.23;1.70;;;19.70;58.30;;;;;;6275657;28;20632;-65
2024/04/06 08:30:52;;;;;;;2.67;1.90;;;19.80;58.60;;;;;;6281147;28;20199;-64
2024/04/06 08:33:52;;;;;;;2.20;1.87;;;20.00;56.80;;;;;;6299569;28;20254;-66
2024/04/06 08:36:53;;;;;;;3.60;1.90;;;20.10;55.90;;;;;;6275956;28;20586;-65
2024/04/06 08:39:54;;;;;;;4.27;2.37;;;20.20;56.40;;;;;;6274959;28;20189;-65
2024/04/06 08:43:02;;;;;;;2.93;1.97;;;20.30;55.80;;;;;;6274915;28;20208;-65
2024/04/06 08:46:05;;;;;;;2.30;1.80;;;20.50;55.20;;;;;;6274497;28;20273;-65
2024/04/06 08:49:08;;;;;;;2.43;2.23;;;20.50;54.30;;;;;;6274691;28;20344;-65
2024/04/06 08:52:11;;;;;;;4.10;1.90;;;20.60;54.20;;;;;;6274645;28;20211;-65
2024/04/06 08:55:11;;;;;;;5.80;2.47;;;20.70;53.50;;;;;;6291017;28;20278;-65
2024/04/06 08:58:12;;;;;;;3.43;2.23;;;20.80;53.80;;;;;;6274755;28;20193;-65
2024/04/06 09:01:13;;;;;;;3.10;2.07;;;20.90;53.80;;;;;;6291595;28;20189;-65
2024/04/06 09:04:14;;;;;;;3.80;2.40;;;21.00;54.30;;;;;;6274797;28;20201;-65
2024/04/06 09:07:14;;;;;;;2.87;2.10;;;21.20;53.90;;;;;;6275280;28;20309;-66
2024/04/06 09:10:15;;;;;;;2.30;2.10;;;21.40;53.50;;;;;;6279358;28;20636;-65
2024/04/06 09:13:17;;;;;;;2.90;2.07;;;21.50;53.30;;;;;;6281413;28;20590;-66
2024/04/06 09:16:17;;;;;;;3.13;2.00;;;21.50;52.90;;;;;;6279938;28;20280;-66
2024/04/06 09:19:20;;;;;;;2.87;2.10;;;21.60;53.90;;;;;;6279305;28;20186;-67
2024/04/06 09:22:21;;;;;;;4.30;2.17;;;21.60;53.10;;;;;;6279287;28;20290;-65
2024/04/06 09:25:22;;;;;;;2.40;2.20;;;21.70;53.40;;;;;;6279101;28;20185;-65
2024/04/06 09:28:24;;;;;;;5.13;2.47;;;21.70;53.40;;;;;;6278805;28;20216;-65
2024/04/06 09:31:25;;;;;;;2.30;2.10;;;21.80;52.90;;;;;;6289372;28;20229;-67
2024/04/06 09:34:26;;;;;;;4.33;2.33;;;21.90;53.50;;;;;;6279670;28;20269;-65
2024/04/06 09:37:32;;;;;;;2.77;2.57;;;22.00;53.30;;;;;;6279249;28;20280;-66
2024/04/06 09:40:33;;;;;;;2.60;2.27;;;21.90;53.10;;;;;;6278483;28;20310;-65
2024/04/06 09:43:35;;;;;;;8.70;2.60;;;22.00;53.70;;;;;;6295960;28;20284;-64
2024/04/06 09:46:36;;;;;;;3.63;2.20;;;22.00;53.40;;;;;;6280325;28;20651;-65
2024/04/06 09:49:38;;;;;;;4.40;2.40;;;22.10;53.00;;;;;;6279608;28;20757;-65
2024/04/06 09:52:40;;;;;;;4.80;2.40;;;22.20;53.60;;;;;;6280774;28;20352;-65
2024/04/06 09:55:42;;;;;;;4.03;2.43;;;22.30;53.00;;;;;;6282043;28;20191;-66
2024/04/06 09:58:48;;;;;;;4.80;2.10;;;22.50;53.20;;;;;;6279784;28;20497;-65
2024/04/06 10:01:52;;;;;;;3.93;2.30;;;22.60;52.20;;;;;;6279293;28;20580;-64
2024/04/06 10:04:56;;;;;;;2.50;2.30;;;22.60;52.30;;;;;;6280571;28;20293;-65
2024/04/06 10:08:03;;;;;;;3.73;2.37;;;22.70;51.60;;;;;;6279314;28;20301;-64
2024/04/06 10:11:05;;;;;;;4.10;2.80;;;22.90;51.10;;;;;;6279666;28;20281;-65
2024/04/06 10:14:06;;;;;;;3.13;2.60;;;23.00;51.00;;;;;;6280026;28;20249;-65
2024/04/06 10:17:08;;;;;;;3.23;2.43;;;23.10;51.10;;;;;;6263800;28;20259;-64
2024/04/06 10:20:13;;;;;;;2.77;2.43;;;23.30;50.20;;;;;;6278719;28;20280;-67
2024/04/06 10:23:14;;;;;;;2.70;2.50;;;23.40;50.10;;;;;;6279652;28;20293;-66
2024/04/06 10:26:16;;;;;;;2.33;2.00;;;23.40;48.80;;;;;;6277802;28;20331;-64
2024/04/06 10:29:17;;;;;;;2.77;2.57;;;23.40;49.50;;;;;;6279017;28;20210;-64
2024/04/06 10:32:18;;;;;;;4.37;2.90;;;23.40;49.50;;;;;;6279465;28;20221;-65
2024/04/06 10:35:19;;;;;;;2.63;2.43;;;23.50;49.40;;;;;;6278870;28;20216;-65
2024/04/06 10:38:21;;;;;;;2.60;2.40;;;23.70;50.40;;;;;;6278664;28;20619;-64
2024/04/06 10:41:23;;;;;;;3.47;2.53;;;23.90;49.90;;;;;;6278619;28;20299;-66
2024/04/06 10:44:25;;;;;;;3.00;2.70;;;24.00;47.70;;;;;;6278112;28;20229;-66
2024/04/06 10:47:27;;;;;;;3.20;2.90;;;24.20;46.60;;;;;;6295299;28;20382;-65
2024/04/06 10:50:27;;;;;;;2.57;2.37;;;24.30;47.90;;;;;;6281375;28;20280;-64
2024/04/06 10:53:30;;;;;;;3.90;2.50;;;24.50;48.90;;;;;;6284593;28;20196;-64
2024/04/06 10:56:32;;;;;;;2.93;2.40;;;24.60;48.60;;;;;;6285035;28;20280;-64
2024/04/06 10:59:33;;;;;;;2.40;2.20;;;24.40;45.60;;;;;;6286193;28;20292;-65
2024/04/06 11:02:35;;;;;;;2.67;2.30;;;24.30;46.10;;;;;;6284768;28;20193;-64
2024/04/06 11:05:37;;;;;;;2.80;2.37;;;24.40;45.30;;;;;;6281808;28;20236;-64
2024/04/06 11:08:40;;;;;;;2.80;2.60;;;24.40;45.10;;;;;;6261183;28;20224;-64
2024/04/06 11:11:41;;;;;;;4.17;2.50;;;24.50;46.20;;;;;;6298270;28;20194;-65
2024/04/06 11:14:42;;;;;;;10.20;2.60;;;24.70;45.40;;;;;;6261210;28;20552;-65
2024/04/06 11:17:42;;;;;;;4.27;2.50;;;24.80;43.40;;;;;;6276865;28;20189;-65
2024/04/06 11:20:44;;;;;;;2.57;2.37;;;24.90;43.60;;;;;;6293460;28;20271;-65
2024/04/06 11:23:47;;;;;;;2.83;2.50;;;24.90;44.80;;;;;;6276888;28;20251;-66
2024/04/06 11:26:48;;;;;;;2.50;2.37;;;24.80;45.20;;;;;;6277151;28;20267;-66
2024/04/06 11:29:49;;;;;;;2.57;2.30;;;24.80;45.00;;;;;;6276604;28;20205;-67
2024/04/06 11:32:50;;;;;;;2.80;2.60;;;24.90;45.00;;;;;;6275728;28;20193;-65
2024/04/06 11:35:51;;;;;;;2.77;2.57;;;25.10;45.20;;;;;;6277098;28;20272;-65
2024/04/06 11:38:52;;;;;;;4.10;2.43;;;25.30;44.50;;;;;;6277313;28;20200;-66
2024/04/06 11:41:53;;;;;;;2.40;2.07;;;25.30;43.60;;;;;;6277151;28;20500;-66
2024/04/06 11:44:53;;;;;;;3.00;2.70;;;25.20;43.40;;;;;;6277322;28;20197;-66
2024/04/06 11:47:54;;;;;;;2.93;2.73;;;25.10;43.00;;;;;;6276902;28;20225;-65
2024/04/06 11:50:55;;;;;;;2.60;2.40;;;25.00;43.70;;;;;;6275791;28;20189;-66
2024/04/06 11:53:56;;;;;;;3.07;2.53;;;25.10;43.40;;;;;;6276369;28;20225;-65
2024/04/06 11:56:57;;;;;;;3.00;2.70;;;25.20;43.50;;;;;;6276338;28;20193;-65
2024/04/06 11:59:58;;;;;;;2.80;2.60;;;25.30;43.50;;;;;;6276744;28;20576;-66
2024/04/06 12:02:59;;;;;;;3.10;2.90;;;25.50;43.30;;;;;;6260360;28;20340;-67
2024/04/06 12:05:59;;;;;;;2.77;2.47;;;25.60;42.60;;;;;;6276785;28;20308;-65
2024/04/06 12:09:00;;;;;;;3.53;2.97;;;25.80;41.90;;;;;;6276317;28;20244;-66
2024/04/06 12:12:01;;;;;;;4.90;2.50;;;25.90;41.10;;;;;;6276620;28;20212;-66
2024/04/06 12:15:02;;;;;;;3.90;2.70;;;26.00;41.20;;;;;;6277038;28;20188;-66
2024/04/06 12:18:04;;;;;;;2.93;2.60;;;26.10;40.80;;;;;;6292909;28;20570;-66
2024/04/06 12:21:04;;;;;;;3.07;2.87;;;26.20;39.60;;;;;;6276462;28;20292;-65
2024/04/06 12:24:05;;;;;;;3.30;2.40;;;26.30;39.60;;;;;;6260041;28;20610;-66
2024/04/06 12:27:06;;;;;;;3.20;2.90;;;26.10;38.80;;;;;;6276484;28;20208;-65
2024/04/06 12:30:12;;;;;;;4.10;2.70;;;26.10;39.00;;;;;;6276453;28;20276;-66
2024/04/06 12:33:13;;;;;;;3.17;2.43;;;26.10;39.20;;;;;;6276845;28;20269;-65
2024/04/06 12:36:14;;;;;;;2.80;2.60;;;26.30;39.50;;;;;;6259350;28;20224;-66
2024/04/06 12:39:15;;;;;;;2.77;2.53;;;26.40;38.70;;;;;;6275625;28;20190;-67
2024/04/06 12:42:15;;;;;;;4.17;2.50;;;26.40;38.60;;;;;;6276310;28;20177;-67
2024/04/06 12:45:16;;;;;;;2.80;2.60;;;26.30;38.90;;;;;;6276123;28;20514;-67
2024/04/06 12:48:17;;;;;;;5.83;5.33;;;26.40;39.20;;;;;;6274638;28;20229;-67
2024/04/06 12:51:18;;;;;;;3.20;2.80;;;26.50;38.40;;;;;;6276670;28;20231;-67
2024/04/06 12:54:19;;;;;;;6.93;3.20;;;26.60;38.10;;;;;;6282772;28;20185;-67
2024/04/06 13:00:39;;;;;;;3.33;2.67;;;26.80;38.20;;;;;;6264471;28;20264;-66
2024/04/06 13:03:40;;;;;;;3.90;3.60;;;26.80;37.80;;;;;;6277385;28;20196;-65
2024/04/06 13:06:40;;;;;;;3.90;3.10;;;26.90;37.90;;;;;;6275540;28;20281;-66
2024/04/06 13:09:41;;;;;;;2.50;2.30;;;27.00;36.80;;;;;;6278871;28;20243;-67
2024/04/06 13:12:42;;;;;;;4.07;3.63;;;27.20;36.70;;;;;;6287418;28;20196;-66
2024/04/06 13:15:43;;;;;;;3.20;2.97;;;27.30;37.20;;;;;;6294757;28;20246;-66
2024/04/06 13:18:45;;;;;;;3.77;3.47;;;27.40;36.50;;;;;;6295813;28;20193;-66
2024/04/06 13:21:45;;;;;;;3.77;3.37;;;27.50;37.50;;;;;;6295758;28;20205;-66
2024/04/06 13:24:46;;;;;;;5.67;3.90;;;27.50;35.50;;;;;;6282306;28;20193;-65
2024/04/06 13:27:49;;;;;;;3.37;3.07;;;27.50;36.30;;;;;;6276267;28;20244;-66
2024/04/06 13:30:52;;;;;;;3.30;3.10;;;27.40;35.30;;;;;;6276642;28;20205;-66
2024/04/06 13:33:53;;;;;;;4.00;3.70;;;27.50;35.30;;;;;;6277164;28;20276;-66
2024/04/06 13:36:54;;;;;;;3.17;2.97;;;27.60;35.60;;;;;;6275737;28;20523;-66
2024/04/06 13:39:55;;;;;;;2.97;2.77;;;27.60;35.30;;;;;;6275946;28;20621;-67
2024/04/06 13:42:57;;;;;;;3.73;3.43;;;27.60;35.80;;;;;;6274869;28;20186;-67
2024/04/06 13:45:58;;;;;;;3.40;3.20;;;27.70;34.70;;;;;;6274271;28;20288;-68
2024/04/06 13:48:59;;;;;;;3.07;2.80;;;27.80;35.20;;;;;;6274066;28;20548;-67
2024/04/06 13:52:01;;;;;;;2.97;2.80;;;27.90;34.60;;;;;;6274158;28;20193;-66
2024/04/06 13:55:03;;;;;;;3.10;2.90;;;27.90;33.70;;;;;;6292333;28;20185;-67
2024/04/06 13:58:04;;;;;;;3.33;3.13;;;27.90;33.70;;;;;;6261991;28;20296;-66
2024/04/06 14:01:05;;;;;;;4.38;3.28;;;28.00;33.20;;;;;;6278303;28;20281;-67
2024/04/06 14:04:06;;;;;;;3.50;3.20;;;28.20;33.10;;;;;;6279002;28;20505;-67
2024/04/06 14:07:06;;;;;;;3.60;3.30;;;28.30;33.00;;;;;;6295598;28;20247;-67
2024/04/06 14:10:08;;;;;;;5.35;4.85;;;28.30;32.70;;;;;;6278985;28;20566;-66
2024/04/06 14:13:09;;;;;;;6.32;3.60;;;28.30;32.20;;;;;;6278491;28;20288;-68
2024/04/06 14:16:10;;;;;;;3.20;2.90;;;28.50;30.20;;;;;;6278605;28;20196;-66
2024/04/06 14:19:15;;;;;;;3.67;3.30;;;28.50;30.60;;;;;;6278576;28;20287;-67
2024/04/06 14:22:16;;;;;;;2.53;2.42;;;28.60;30.80;;;;;;6278784;28;20182;-67
2024/04/06 14:25:17;;;;;;;3.92;3.00;;;28.60;31.00;;;;;;6278511;28;20680;-66
2024/04/06 14:28:18;;;;;;;3.20;2.90;;;28.70;31.90;;;;;;6282611;28;20213;-66
2024/04/06 14:31:18;;;;;;;3.35;3.05;;;28.80;31.20;;;;;;6284753;28;20246;-66
2024/04/06 14:34:19;;;;;;;2.55;2.45;;;28.70;30.20;;;;;;6285734;28;20185;-66
2024/04/06 14:37:20;;;;;;;3.70;3.40;;;28.70;31.30;;;;;;6281718;28;20187;-67
2024/04/06 14:40:21;;;;;;;3.70;3.50;;;28.70;31.90;;;;;;6282355;28;20547;-67
2024/04/06 14:43:22;;;;;;;3.42;3.08;;;28.80;32.40;;;;;;6279576;28;20619;-67
2024/04/06 14:46:23;;;;;;;3.22;3.03;;;28.80;32.00;;;;;;6277488;28;20268;-67
2024/04/06 14:49:24;;;;;;;3.60;3.35;;;28.80;32.60;;;;;;6277666;28;20216;-66
2024/04/06 14:52:24;;;;;;;3.07;2.87;;;28.70;32.40;;;;;;6281069;28;20214;-66
2024/04/06 14:55:25;;;;;;;3.30;3.10;;;28.50;33.70;;;;;;6298735;28;20612;-66
2024/04/06 14:58:26;;;;;;;3.20;3.00;;;28.50;33.60;;;;;;6277736;28;20272;-66
2024/04/06 15:01:27;;;;;;;3.45;3.15;;;28.40;34.00;;;;;;6277558;28;20189;-66
2024/04/06 15:04:28;;;;;;;2.93;2.73;;;28.40;34.10;;;;;;6277168;28;20280;-67
2024/04/06 15:07:29;;;;;;;4.70;4.30;;;28.40;35.00;;;;;;6293667;28;20647;-65
2024/04/06 15:10:29;;;;;;;3.40;2.80;;;28.40;34.80;;;;;;6277097;28;20190;-66
2024/04/06 15:13:30;;;;;;;4.07;3.30;;;28.40;34.90;;;;;;6277686;28;20193;-67
2024/04/06 15:16:32;;;;;;;3.17;2.97;;;28.50;35.00;;;;;;6277208;28;20577;-66
2024/04/06 15:19:33;;;;;;;3.30;3.00;;;28.50;34.40;;;;;;6277292;28;20280;-66
2024/04/06 15:22:34;;;;;;;3.15;2.85;;;28.40;35.10;;;;;;6276670;28;20569;-66
2024/04/06 15:25:34;;;;;;;3.40;3.10;;;28.50;35.40;;;;;;6282076;28;20235;-66
2024/04/06 15:28:35;;;;;;;3.08;2.78;;;28.40;35.50;;;;;;6287502;28;20330;-66
2024/04/06 15:31:36;;;;;;;3.30;3.10;;;28.50;36.20;;;;;;6290888;28;20531;-66
2024/04/06 15:34:37;;;;;;;5.43;3.53;;;28.60;36.50;;;;;;6290435;28;20185;-66
2024/04/06 15:37:38;;;;;;;3.55;2.85;;;28.60;36.80;;;;;;6286046;28;20306;-66
2024/04/06 15:40:39;;;;;;;4.10;3.20;;;28.70;36.60;;;;;;6285725;28;20254;-66
2024/04/06 15:43:40;;;;;;;3.40;3.05;;;28.70;36.50;;;;;;6290368;28;20249;-67